sensor_id;sensor_type;location;lat;lon;timestamp;P1;durP1;ratioP1;P2;durP2;ratioP2
8857;SDS011;4465;50.904;4.696;2022-11-20T00:02:05;69.22;;;29.13;;
8857;SDS011;4465;50.904;4.696;2022-11-20T00:04:34;77.00;;;31.20;;
8857;SDS011;4465;50.904;4.696;2022-11-20T00:07:00;76.07;;;32.75;;
8857;SDS011;4465;50.904;4.696;2022-11-20T00:09:38;68.55;;;29.90;;
8857;SDS011;4465;50.904;4.696;2022-11-20T00:12:04;69.78;;;29.23;;
8857;SDS011;4465;50.904;4.696;2022-11-20T00:14:30;87.00;;;32.13;;
8857;SDS011;4465;50.904;4.696;2022-11-20T00:17:01;75.60;;;30.02;;
8857;SDS011;4465;50.904;4.696;2022-11-20T00:19:31;67.53;;;28.98;;
8857;SDS011;4465;50.904;4.696;2022-11-20T00:22:01;72.18;;;29.80;;
8857;SDS011;4465;50.904;4.696;2022-11-20T00:24:35;69.07;;;29.58;;
8857;SDS011;4465;50.904;4.696;2022-11-20T00:27:05;85.72;;;34.42;;
8857;SDS011;4465;50.904;4.696;2022-11-20T00:29:31;72.55;;;29.90;;
8857;SDS011;4465;50.904;4.696;2022-11-20T00:32:00;69.45;;;30.23;;
8857;SDS011;4465;50.904;4.696;2022-11-20T00:34:32;70.68;;;29.08;;
8857;SDS011;4465;50.904;4.696;2022-11-20T00:37:02;68.07;;;28.63;;
8857;SDS011;4465;50.904;4.696;2022-11-20T00:39:33;67.90;;;29.08;;
8857;SDS011;4465;50.904;4.696;2022-11-20T00:42:05;70.57;;;30.30;;
8857;SDS011;4465;50.904;4.696;2022-11-20T00:44:34;62.55;;;28.08;;
8857;SDS011;4465;50.904;4.696;2022-11-20T00:47:03;64.25;;;27.77;;
8857;SDS011;4465;50.904;4.696;2022-11-20T00:49:29;63.83;;;28.45;;
8857;SDS011;4465;50.904;4.696;2022-11-20T00:51:58;62.97;;;28.98;;
8857;SDS011;4465;50.904;4.696;2022-11-20T00:54:28;59.97;;;28.23;;
8857;SDS011;4465;50.904;4.696;2022-11-20T00:56:59;70.72;;;29.35;;
8857;SDS011;4465;50.904;4.696;2022-11-20T00:59:32;75.15;;;30.20;;
8857;SDS011;4465;50.904;4.696;2022-11-20T01:01:58;68.65;;;28.27;;
8857;SDS011;4465;50.904;4.696;2022-11-20T01:04:25;67.80;;;28.33;;
8857;SDS011;4465;50.904;4.696;2022-11-20T01:06:53;65.85;;;29.05;;
8857;SDS011;4465;50.904;4.696;2022-11-20T01:09:28;60.72;;;28.17;;
8857;SDS011;4465;50.904;4.696;2022-11-20T01:11:57;62.72;;;28.77;;
8857;SDS011;4465;50.904;4.696;2022-11-20T01:14:26;64.65;;;28.60;;
8857;SDS011;4465;50.904;4.696;2022-11-20T01:16:52;64.13;;;28.23;;
8857;SDS011;4465;50.904;4.696;2022-11-20T01:24:35;62.70;;;28.10;;
8857;SDS011;4465;50.904;4.696;2022-11-20T01:27:09;61.33;;;26.60;;
8857;SDS011;4465;50.904;4.696;2022-11-20T01:29:37;64.97;;;29.08;;
8857;SDS011;4465;50.904;4.696;2022-11-20T01:32:04;73.63;;;30.13;;
8857;SDS011;4465;50.904;4.696;2022-11-20T01:34:33;73.05;;;30.48;;
8857;SDS011;4465;50.904;4.696;2022-11-20T01:36:58;67.28;;;29.17;;
8857;SDS011;4465;50.904;4.696;2022-11-20T01:39:28;62.92;;;27.67;;
8857;SDS011;4465;50.904;4.696;2022-11-20T01:42:00;65.20;;;28.25;;
8857;SDS011;4465;50.904;4.696;2022-11-20T01:45:00;72.03;;;28.63;;
8857;SDS011;4465;50.904;4.696;2022-11-20T01:47:34;66.07;;;27.98;;
8857;SDS011;4465;50.904;4.696;2022-11-20T01:50:10;56.72;;;26.55;;
8857;SDS011;4465;50.904;4.696;2022-11-20T01:52:47;59.83;;;26.70;;
8857;SDS011;4465;50.904;4.696;2022-11-20T01:55:25;61.70;;;27.83;;
8857;SDS011;4465;50.904;4.696;2022-11-20T01:57:56;66.85;;;28.80;;
8857;SDS011;4465;50.904;4.696;2022-11-20T02:00:27;68.97;;;28.63;;
8857;SDS011;4465;50.904;4.696;2022-11-20T02:02:55;68.13;;;29.20;;
8857;SDS011;4465;50.904;4.696;2022-11-20T02:08:55;73.40;;;30.15;;
8857;SDS011;4465;50.904;4.696;2022-11-20T02:11:21;68.35;;;28.25;;
8857;SDS011;4465;50.904;4.696;2022-11-20T02:13:52;66.97;;;28.08;;
8857;SDS011;4465;50.904;4.696;2022-11-20T02:16:41;77.50;;;29.05;;
8857;SDS011;4465;50.904;4.696;2022-11-20T02:22:33;73.18;;;29.45;;
8857;SDS011;4465;50.904;4.696;2022-11-20T02:24:41;72.35;;;30.10;;
8857;SDS011;4465;50.904;4.696;2022-11-20T02:30:03;81.03;;;29.75;;
8857;SDS011;4465;50.904;4.696;2022-11-20T02:32:39;77.00;;;30.40;;
8857;SDS011;4465;50.904;4.696;2022-11-20T02:35:06;75.68;;;30.75;;
8857;SDS011;4465;50.904;4.696;2022-11-20T02:37:51;85.68;;;30.63;;
8857;SDS011;4465;50.904;4.696;2022-11-20T02:40:23;79.70;;;29.73;;
8857;SDS011;4465;50.904;4.696;2022-11-20T02:42:58;86.40;;;32.50;;
8857;SDS011;4465;50.904;4.696;2022-11-20T02:45:47;84.00;;;30.95;;
8857;SDS011;4465;50.904;4.696;2022-11-20T02:48:22;87.82;;;31.45;;
8857;SDS011;4465;50.904;4.696;2022-11-20T02:50:51;80.55;;;32.88;;
8857;SDS011;4465;50.904;4.696;2022-11-20T02:53:17;87.50;;;32.05;;
8857;SDS011;4465;50.904;4.696;2022-11-20T02:55:46;94.65;;;33.47;;
8857;SDS011;4465;50.904;4.696;2022-11-20T02:58:14;96.95;;;32.70;;
8857;SDS011;4465;50.904;4.696;2022-11-20T03:00:44;88.57;;;35.78;;
8857;SDS011;4465;50.904;4.696;2022-11-20T03:03:15;96.13;;;34.17;;
8857;SDS011;4465;50.904;4.696;2022-11-20T03:05:40;97.60;;;34.13;;
8857;SDS011;4465;50.904;4.696;2022-11-20T03:08:09;98.10;;;35.05;;
8857;SDS011;4465;50.904;4.696;2022-11-20T03:10:35;113.07;;;37.25;;
8857;SDS011;4465;50.904;4.696;2022-11-20T03:13:04;96.63;;;35.22;;
8857;SDS011;4465;50.904;4.696;2022-11-20T03:15:31;105.82;;;36.17;;
8857;SDS011;4465;50.904;4.696;2022-11-20T03:17:57;90.07;;;34.50;;
8857;SDS011;4465;50.904;4.696;2022-11-20T03:20:26;119.50;;;36.05;;
8857;SDS011;4465;50.904;4.696;2022-11-20T03:23:02;108.47;;;35.88;;
8857;SDS011;4465;50.904;4.696;2022-11-20T03:25:28;97.63;;;35.83;;
8857;SDS011;4465;50.904;4.696;2022-11-20T03:27:54;98.65;;;35.28;;
8857;SDS011;4465;50.904;4.696;2022-11-20T03:30:21;100.47;;;36.65;;
8857;SDS011;4465;50.904;4.696;2022-11-20T03:32:47;107.97;;;37.03;;
8857;SDS011;4465;50.904;4.696;2022-11-20T03:35:16;99.78;;;36.45;;
8857;SDS011;4465;50.904;4.696;2022-11-20T03:37:42;100.68;;;34.90;;
8857;SDS011;4465;50.904;4.696;2022-11-20T03:40:09;101.53;;;34.80;;
8857;SDS011;4465;50.904;4.696;2022-11-20T03:42:37;108.70;;;34.97;;
8857;SDS011;4465;50.904;4.696;2022-11-20T03:45:16;100.10;;;34.72;;
8857;SDS011;4465;50.904;4.696;2022-11-20T03:47:46;111.78;;;37.08;;
8857;SDS011;4465;50.904;4.696;2022-11-20T03:50:13;123.13;;;38.67;;
8857;SDS011;4465;50.904;4.696;2022-11-20T03:52:40;116.55;;;37.05;;
8857;SDS011;4465;50.904;4.696;2022-11-20T03:55:06;109.15;;;36.13;;
8857;SDS011;4465;50.904;4.696;2022-11-20T03:57:33;109.65;;;37.15;;
8857;SDS011;4465;50.904;4.696;2022-11-20T03:59:59;98.57;;;35.58;;
8857;SDS011;4465;50.904;4.696;2022-11-20T04:02:27;120.25;;;37.53;;
8857;SDS011;4465;50.904;4.696;2022-11-20T04:04:53;108.53;;;35.53;;
8857;SDS011;4465;50.904;4.696;2022-11-20T04:07:19;106.43;;;37.17;;
8857;SDS011;4465;50.904;4.696;2022-11-20T04:09:45;123.10;;;37.65;;
8857;SDS011;4465;50.904;4.696;2022-11-20T04:12:11;116.55;;;36.25;;
8857;SDS011;4465;50.904;4.696;2022-11-20T04:14:37;118.07;;;37.97;;
8857;SDS011;4465;50.904;4.696;2022-11-20T04:17:03;123.30;;;40.03;;
8857;SDS011;4465;50.904;4.696;2022-11-20T04:19:29;105.95;;;36.53;;
8857;SDS011;4465;50.904;4.696;2022-11-20T04:21:56;112.05;;;36.28;;
8857;SDS011;4465;50.904;4.696;2022-11-20T04:24:22;114.40;;;37.03;;
8857;SDS011;4465;50.904;4.696;2022-11-20T04:26:49;115.93;;;37.38;;
8857;SDS011;4465;50.904;4.696;2022-11-20T04:29:15;125.57;;;37.53;;
8857;SDS011;4465;50.904;4.696;2022-11-20T04:31:41;116.88;;;37.80;;
8857;SDS011;4465;50.904;4.696;2022-11-20T04:34:07;116.63;;;36.55;;
8857;SDS011;4465;50.904;4.696;2022-11-20T04:36:33;155.90;;;40.25;;
8857;SDS011;4465;50.904;4.696;2022-11-20T04:39:03;144.65;;;39.85;;
8857;SDS011;4465;50.904;4.696;2022-11-20T04:41:32;134.65;;;38.92;;
8857;SDS011;4465;50.904;4.696;2022-11-20T04:44:01;132.52;;;36.72;;
8857;SDS011;4465;50.904;4.696;2022-11-20T04:46:30;140.80;;;38.03;;
8857;SDS011;4465;50.904;4.696;2022-11-20T04:48:58;152.10;;;38.70;;
8857;SDS011;4465;50.904;4.696;2022-11-20T04:51:26;143.80;;;37.70;;
8857;SDS011;4465;50.904;4.696;2022-11-20T04:53:53;123.82;;;35.45;;
8857;SDS011;4465;50.904;4.696;2022-11-20T04:56:19;123.10;;;35.55;;
8857;SDS011;4465;50.904;4.696;2022-11-20T04:58:45;110.13;;;35.40;;
8857;SDS011;4465;50.904;4.696;2022-11-20T05:03:42;144.60;;;36.55;;
8857;SDS011;4465;50.904;4.696;2022-11-20T05:06:09;99.75;;;33.08;;
8857;SDS011;4465;50.904;4.696;2022-11-20T05:08:37;97.78;;;33.53;;
8857;SDS011;4465;50.904;4.696;2022-11-20T05:11:04;105.53;;;32.65;;
8857;SDS011;4465;50.904;4.696;2022-11-20T05:13:30;117.03;;;33.55;;
8857;SDS011;4465;50.904;4.696;2022-11-20T05:16:01;109.60;;;32.08;;
8857;SDS011;4465;50.904;4.696;2022-11-20T05:18:31;98.57;;;32.40;;
8857;SDS011;4465;50.904;4.696;2022-11-20T05:20:58;107.03;;;32.27;;
8857;SDS011;4465;50.904;4.696;2022-11-20T05:23:24;114.20;;;34.60;;
8857;SDS011;4465;50.904;4.696;2022-11-20T05:25:53;104.82;;;34.30;;
8857;SDS011;4465;50.904;4.696;2022-11-20T05:28:20;126.50;;;35.25;;
8857;SDS011;4465;50.904;4.696;2022-11-20T05:30:48;133.63;;;35.65;;
8857;SDS011;4465;50.904;4.696;2022-11-20T05:33:17;108.55;;;33.08;;
8857;SDS011;4465;50.904;4.696;2022-11-20T05:35:43;112.50;;;35.50;;
8857;SDS011;4465;50.904;4.696;2022-11-20T05:38:10;162.50;;;47.60;;
8857;SDS011;4465;50.904;4.696;2022-11-20T05:40:38;137.60;;;36.88;;
8857;SDS011;4465;50.904;4.696;2022-11-20T05:43:05;130.90;;;36.00;;
8857;SDS011;4465;50.904;4.696;2022-11-20T05:45:31;134.02;;;36.08;;
8857;SDS011;4465;50.904;4.696;2022-11-20T05:47:58;146.63;;;37.67;;
8857;SDS011;4465;50.904;4.696;2022-11-20T05:50:45;135.00;;;37.10;;
8857;SDS011;4465;50.904;4.696;2022-11-20T05:53:12;128.38;;;35.08;;
8857;SDS011;4465;50.904;4.696;2022-11-20T05:55:40;121.97;;;34.65;;
8857;SDS011;4465;50.904;4.696;2022-11-20T05:58:06;156.70;;;37.33;;
8857;SDS011;4465;50.904;4.696;2022-11-20T06:00:33;153.82;;;37.03;;
8857;SDS011;4465;50.904;4.696;2022-11-20T06:03:00;123.87;;;35.63;;
8857;SDS011;4465;50.904;4.696;2022-11-20T06:05:27;110.25;;;33.83;;
8857;SDS011;4465;50.904;4.696;2022-11-20T06:07:52;108.40;;;35.83;;
8857;SDS011;4465;50.904;4.696;2022-11-20T06:10:18;107.10;;;32.28;;
8857;SDS011;4465;50.904;4.696;2022-11-20T06:12:44;97.13;;;33.25;;
8857;SDS011;4465;50.904;4.696;2022-11-20T06:15:10;91.78;;;31.33;;
8857;SDS011;4465;50.904;4.696;2022-11-20T06:17:37;96.50;;;31.92;;
8857;SDS011;4465;50.904;4.696;2022-11-20T06:20:03;93.82;;;32.25;;
8857;SDS011;4465;50.904;4.696;2022-11-20T06:22:30;88.97;;;30.35;;
8857;SDS011;4465;50.904;4.696;2022-11-20T06:24:57;91.32;;;32.25;;
8857;SDS011;4465;50.904;4.696;2022-11-20T06:27:23;97.13;;;31.73;;
8857;SDS011;4465;50.904;4.696;2022-11-20T06:29:52;114.03;;;35.67;;
8857;SDS011;4465;50.904;4.696;2022-11-20T06:32:20;113.55;;;34.88;;
8857;SDS011;4465;50.904;4.696;2022-11-20T06:34:48;93.90;;;29.63;;
8857;SDS011;4465;50.904;4.696;2022-11-20T06:37:13;90.45;;;29.98;;
8857;SDS011;4465;50.904;4.696;2022-11-20T06:39:39;90.63;;;28.40;;
8857;SDS011;4465;50.904;4.696;2022-11-20T06:42:08;92.13;;;28.38;;
8857;SDS011;4465;50.904;4.696;2022-11-20T06:44:37;92.68;;;29.52;;
8857;SDS011;4465;50.904;4.696;2022-11-20T06:47:05;88.50;;;27.70;;
8857;SDS011;4465;50.904;4.696;2022-11-20T06:49:32;95.65;;;28.23;;
8857;SDS011;4465;50.904;4.696;2022-11-20T06:51:59;109.78;;;32.58;;
8857;SDS011;4465;50.904;4.696;2022-11-20T06:54:27;111.70;;;30.23;;
8857;SDS011;4465;50.904;4.696;2022-11-20T06:56:56;110.45;;;30.65;;
8857;SDS011;4465;50.904;4.696;2022-11-20T06:59:21;123.47;;;31.38;;
8857;SDS011;4465;50.904;4.696;2022-11-20T07:01:48;115.45;;;30.48;;
8857;SDS011;4465;50.904;4.696;2022-11-20T07:04:13;123.03;;;32.85;;
8857;SDS011;4465;50.904;4.696;2022-11-20T07:06:42;128.35;;;34.05;;
8857;SDS011;4465;50.904;4.696;2022-11-20T07:09:08;138.18;;;33.08;;
8857;SDS011;4465;50.904;4.696;2022-11-20T07:11:33;125.43;;;31.98;;
8857;SDS011;4465;50.904;4.696;2022-11-20T07:14:00;129.93;;;33.00;;
8857;SDS011;4465;50.904;4.696;2022-11-20T07:16:27;134.35;;;32.78;;
8857;SDS011;4465;50.904;4.696;2022-11-20T07:18:55;133.85;;;32.10;;
8857;SDS011;4465;50.904;4.696;2022-11-20T07:21:21;142.82;;;33.58;;
8857;SDS011;4465;50.904;4.696;2022-11-20T07:23:47;127.32;;;31.40;;
8857;SDS011;4465;50.904;4.696;2022-11-20T07:26:15;171.50;;;33.17;;
8857;SDS011;4465;50.904;4.696;2022-11-20T07:28:43;156.07;;;31.75;;
8857;SDS011;4465;50.904;4.696;2022-11-20T07:31:10;166.88;;;34.25;;
8857;SDS011;4465;50.904;4.696;2022-11-20T07:33:39;143.93;;;31.25;;
8857;SDS011;4465;50.904;4.696;2022-11-20T07:36:05;147.30;;;34.88;;
8857;SDS011;4465;50.904;4.696;2022-11-20T07:38:32;173.30;;;35.15;;
8857;SDS011;4465;50.904;4.696;2022-11-20T07:40:58;139.40;;;31.38;;
8857;SDS011;4465;50.904;4.696;2022-11-20T07:43:27;154.80;;;33.78;;
8857;SDS011;4465;50.904;4.696;2022-11-20T07:45:56;169.32;;;36.58;;
8857;SDS011;4465;50.904;4.696;2022-11-20T07:48:23;149.43;;;33.28;;
8857;SDS011;4465;50.904;4.696;2022-11-20T07:50:53;161.93;;;34.70;;
8857;SDS011;4465;50.904;4.696;2022-11-20T07:53:22;151.43;;;35.63;;
8857;SDS011;4465;50.904;4.696;2022-11-20T07:55:49;159.45;;;34.15;;
8857;SDS011;4465;50.904;4.696;2022-11-20T07:58:18;153.88;;;33.17;;
8857;SDS011;4465;50.904;4.696;2022-11-20T08:03:11;157.65;;;33.80;;
8857;SDS011;4465;50.904;4.696;2022-11-20T08:05:39;150.23;;;33.95;;
8857;SDS011;4465;50.904;4.696;2022-11-20T08:08:05;143.70;;;32.47;;
8857;SDS011;4465;50.904;4.696;2022-11-20T08:10:32;155.48;;;35.45;;
8857;SDS011;4465;50.904;4.696;2022-11-20T08:12:58;150.63;;;34.42;;
8857;SDS011;4465;50.904;4.696;2022-11-20T08:15:47;144.52;;;35.13;;
8857;SDS011;4465;50.904;4.696;2022-11-20T08:18:18;157.88;;;35.03;;
8857;SDS011;4465;50.904;4.696;2022-11-20T08:20:44;143.48;;;32.70;;
8857;SDS011;4465;50.904;4.696;2022-11-20T08:23:13;147.00;;;35.20;;
8857;SDS011;4465;50.904;4.696;2022-11-20T08:25:39;141.43;;;32.67;;
8857;SDS011;4465;50.904;4.696;2022-11-20T08:28:07;160.85;;;35.15;;
8857;SDS011;4465;50.904;4.696;2022-11-20T08:30:35;153.95;;;34.38;;
8857;SDS011;4465;50.904;4.696;2022-11-20T08:33:03;162.07;;;36.63;;
8857;SDS011;4465;50.904;4.696;2022-11-20T08:35:36;163.32;;;34.40;;
8857;SDS011;4465;50.904;4.696;2022-11-20T08:38:03;154.85;;;36.00;;
8857;SDS011;4465;50.904;4.696;2022-11-20T08:40:32;163.70;;;36.40;;
8857;SDS011;4465;50.904;4.696;2022-11-20T08:42:59;145.18;;;34.72;;
8857;SDS011;4465;50.904;4.696;2022-11-20T08:45:27;154.87;;;35.37;;
8857;SDS011;4465;50.904;4.696;2022-11-20T08:47:59;161.75;;;37.00;;
8857;SDS011;4465;50.904;4.696;2022-11-20T08:50:25;144.57;;;33.78;;
8857;SDS011;4465;50.904;4.696;2022-11-20T08:52:54;149.90;;;32.67;;
8857;SDS011;4465;50.904;4.696;2022-11-20T08:55:23;153.07;;;33.05;;
8857;SDS011;4465;50.904;4.696;2022-11-20T08:57:49;153.40;;;33.53;;
8857;SDS011;4465;50.904;4.696;2022-11-20T09:00:16;157.87;;;35.33;;
8857;SDS011;4465;50.904;4.696;2022-11-20T09:02:42;153.48;;;34.30;;
8857;SDS011;4465;50.904;4.696;2022-11-20T09:05:08;154.43;;;35.47;;
8857;SDS011;4465;50.904;4.696;2022-11-20T09:07:34;160.15;;;33.40;;
8857;SDS011;4465;50.904;4.696;2022-11-20T09:09:59;152.10;;;33.60;;
8857;SDS011;4465;50.904;4.696;2022-11-20T09:12:25;161.38;;;34.72;;
8857;SDS011;4465;50.904;4.696;2022-11-20T09:14:52;157.85;;;33.58;;
8857;SDS011;4465;50.904;4.696;2022-11-20T09:17:17;142.55;;;34.25;;
8857;SDS011;4465;50.904;4.696;2022-11-20T09:19:45;144.32;;;32.17;;
8857;SDS011;4465;50.904;4.696;2022-11-20T09:22:12;146.23;;;31.73;;
8857;SDS011;4465;50.904;4.696;2022-11-20T09:24:41;146.40;;;33.63;;
8857;SDS011;4465;50.904;4.696;2022-11-20T09:27:08;142.25;;;32.63;;
8857;SDS011;4465;50.904;4.696;2022-11-20T09:29:34;146.93;;;33.45;;
8857;SDS011;4465;50.904;4.696;2022-11-20T09:32:00;155.45;;;33.58;;
8857;SDS011;4465;50.904;4.696;2022-11-20T09:34:26;155.00;;;33.28;;
8857;SDS011;4465;50.904;4.696;2022-11-20T09:36:52;160.77;;;33.55;;
8857;SDS011;4465;50.904;4.696;2022-11-20T09:39:19;166.07;;;38.55;;
8857;SDS011;4465;50.904;4.696;2022-11-20T09:41:55;125.35;;;31.50;;
8857;SDS011;4465;50.904;4.696;2022-11-20T09:47:08;127.10;;;29.65;;
8857;SDS011;4465;50.904;4.696;2022-11-20T09:55:32;132.43;;;29.13;;
8857;SDS011;4465;50.904;4.696;2022-11-20T09:58:00;143.23;;;31.50;;
8857;SDS011;4465;50.904;4.696;2022-11-20T10:00:30;116.68;;;28.08;;
8857;SDS011;4465;50.904;4.696;2022-11-20T10:03:03;113.35;;;28.10;;
8857;SDS011;4465;50.904;4.696;2022-11-20T10:05:40;130.00;;;30.02;;
8857;SDS011;4465;50.904;4.696;2022-11-20T10:27:30;96.30;;;26.67;;
8857;SDS011;4465;50.904;4.696;2022-11-20T10:30:08;92.28;;;26.52;;
8857;SDS011;4465;50.904;4.696;2022-11-20T10:32:40;90.75;;;24.77;;
8857;SDS011;4465;50.904;4.696;2022-11-20T10:35:16;89.30;;;25.30;;
8857;SDS011;4465;50.904;4.696;2022-11-20T10:37:56;90.25;;;25.30;;
8857;SDS011;4465;50.904;4.696;2022-11-20T10:40:35;79.85;;;24.52;;
8857;SDS011;4465;50.904;4.696;2022-11-20T10:43:17;75.85;;;24.08;;
8857;SDS011;4465;50.904;4.696;2022-11-20T10:46:18;76.40;;;24.08;;
8857;SDS011;4465;50.904;4.696;2022-11-20T10:48:52;74.22;;;24.02;;
8857;SDS011;4465;50.904;4.696;2022-11-20T10:51:35;72.20;;;23.27;;
8857;SDS011;4465;50.904;4.696;2022-11-20T10:56:58;73.68;;;21.50;;
8857;SDS011;4465;50.904;4.696;2022-11-20T10:59:51;64.45;;;20.77;;
8857;SDS011;4465;50.904;4.696;2022-11-20T11:02:21;54.33;;;19.55;;
8857;SDS011;4465;50.904;4.696;2022-11-20T11:04:51;54.10;;;18.55;;
8857;SDS011;4465;50.904;4.696;2022-11-20T11:09:55;46.30;;;17.45;;
8857;SDS011;4465;50.904;4.696;2022-11-20T11:12:23;41.78;;;15.98;;
8857;SDS011;4465;50.904;4.696;2022-11-20T11:14:53;48.20;;;16.83;;
8857;SDS011;4465;50.904;4.696;2022-11-20T11:17:27;51.80;;;16.95;;
8857;SDS011;4465;50.904;4.696;2022-11-20T11:22:31;39.10;;;13.95;;
8857;SDS011;4465;50.904;4.696;2022-11-20T11:24:59;36.58;;;13.40;;
8857;SDS011;4465;50.904;4.696;2022-11-20T11:27:27;38.17;;;12.32;;
8857;SDS011;4465;50.904;4.696;2022-11-20T11:30:14;33.10;;;11.25;;
8857;SDS011;4465;50.904;4.696;2022-11-20T11:32:42;26.60;;;8.95;;
8857;SDS011;4465;50.904;4.696;2022-11-20T11:35:22;25.25;;;9.50;;
8857;SDS011;4465;50.904;4.696;2022-11-20T11:37:50;21.27;;;9.30;;
8857;SDS011;4465;50.904;4.696;2022-11-20T11:40:19;23.63;;;8.77;;
8857;SDS011;4465;50.904;4.696;2022-11-20T11:42:54;16.23;;;8.05;;
8857;SDS011;4465;50.904;4.696;2022-11-20T11:45:26;20.40;;;7.30;;
8857;SDS011;4465;50.904;4.696;2022-11-20T11:47:53;14.10;;;6.18;;
8857;SDS011;4465;50.904;4.696;2022-11-20T11:50:27;13.85;;;5.53;;
8857;SDS011;4465;50.904;4.696;2022-11-20T11:52:56;15.32;;;5.88;;
8857;SDS011;4465;50.904;4.696;2022-11-20T11:55:26;14.38;;;4.80;;
8857;SDS011;4465;50.904;4.696;2022-11-20T12:03:35;13.20;;;4.38;;
8857;SDS011;4465;50.904;4.696;2022-11-20T12:06:10;12.52;;;3.67;;
8857;SDS011;4465;50.904;4.696;2022-11-20T12:08:44;9.90;;;3.65;;
8857;SDS011;4465;50.904;4.696;2022-11-20T12:14:09;11.25;;;3.65;;
8857;SDS011;4465;50.904;4.696;2022-11-20T12:16:49;12.20;;;3.45;;
8857;SDS011;4465;50.904;4.696;2022-11-20T12:19:17;12.52;;;3.83;;
8857;SDS011;4465;50.904;4.696;2022-11-20T12:21:58;8.98;;;3.15;;
8857;SDS011;4465;50.904;4.696;2022-11-20T12:30:08;10.23;;;3.00;;
8857;SDS011;4465;50.904;4.696;2022-11-20T12:50:16;10.23;;;3.38;;
8857;SDS011;4465;50.904;4.696;2022-11-20T12:53:05;12.13;;;3.65;;
8857;SDS011;4465;50.904;4.696;2022-11-20T13:04:31;13.52;;;3.60;;
8857;SDS011;4465;50.904;4.696;2022-11-20T13:07:11;22.02;;;4.85;;
8857;SDS011;4465;50.904;4.696;2022-11-20T13:09:43;10.13;;;4.03;;
8857;SDS011;4465;50.904;4.696;2022-11-20T13:12:14;9.60;;;3.83;;
8857;SDS011;4465;50.904;4.696;2022-11-20T13:15:02;11.73;;;3.55;;
8857;SDS011;4465;50.904;4.696;2022-11-20T13:18:00;20.17;;;4.60;;
8857;SDS011;4465;50.904;4.696;2022-11-20T13:20:30;13.83;;;4.10;;
8857;SDS011;4465;50.904;4.696;2022-11-20T13:22:59;14.27;;;4.13;;
8857;SDS011;4465;50.904;4.696;2022-11-20T13:25:29;14.63;;;3.85;;
8857;SDS011;4465;50.904;4.696;2022-11-20T13:27:57;16.92;;;4.18;;
8857;SDS011;4465;50.904;4.696;2022-11-20T13:30:26;9.77;;;3.72;;
8857;SDS011;4465;50.904;4.696;2022-11-20T13:38:05;15.25;;;4.53;;
8857;SDS011;4465;50.904;4.696;2022-11-20T13:40:37;15.15;;;4.97;;
8857;SDS011;4465;50.904;4.696;2022-11-20T13:46:03;13.82;;;4.85;;
8857;SDS011;4465;50.904;4.696;2022-11-20T13:48:49;9.82;;;4.35;;
8857;SDS011;4465;50.904;4.696;2022-11-20T13:51:33;9.90;;;4.15;;
8857;SDS011;4465;50.904;4.696;2022-11-20T14:00:15;11.85;;;4.65;;
8857;SDS011;4465;50.904;4.696;2022-11-20T14:03:08;13.25;;;5.57;;
8857;SDS011;4465;50.904;4.696;2022-11-20T14:05:46;13.40;;;4.78;;
8857;SDS011;4465;50.904;4.696;2022-11-20T14:08:27;11.75;;;4.28;;
8857;SDS011;4465;50.904;4.696;2022-11-20T14:11:20;16.08;;;4.45;;
8857;SDS011;4465;50.904;4.696;2022-11-20T14:16:29;10.35;;;4.68;;
8857;SDS011;4465;50.904;4.696;2022-11-20T14:21:49;8.00;;;4.05;;
8857;SDS011;4465;50.904;4.696;2022-11-20T14:24:21;10.85;;;4.90;;
8857;SDS011;4465;50.904;4.696;2022-11-20T14:26:49;14.27;;;5.63;;
8857;SDS011;4465;50.904;4.696;2022-11-20T14:29:17;7.82;;;3.75;;
8857;SDS011;4465;50.904;4.696;2022-11-20T14:31:54;8.70;;;4.22;;
8857;SDS011;4465;50.904;4.696;2022-11-20T14:34:22;10.60;;;4.28;;
8857;SDS011;4465;50.904;4.696;2022-11-20T14:36:58;8.57;;;4.85;;
8857;SDS011;4465;50.904;4.696;2022-11-20T14:39:33;11.43;;;4.07;;
8857;SDS011;4465;50.904;4.696;2022-11-20T14:42:00;7.40;;;4.05;;
8857;SDS011;4465;50.904;4.696;2022-11-20T14:44:31;7.73;;;3.93;;
8857;SDS011;4465;50.904;4.696;2022-11-20T14:46:59;6.28;;;3.90;;
8857;SDS011;4465;50.904;4.696;2022-11-20T14:49:27;9.80;;;3.80;;
8857;SDS011;4465;50.904;4.696;2022-11-20T14:52:00;7.85;;;3.40;;
8857;SDS011;4465;50.904;4.696;2022-11-20T14:54:48;5.65;;;3.45;;
8857;SDS011;4465;50.904;4.696;2022-11-20T14:57:20;9.15;;;3.47;;
8857;SDS011;4465;50.904;4.696;2022-11-20T14:59:46;6.32;;;3.05;;
8857;SDS011;4465;50.904;4.696;2022-11-20T15:02:12;7.25;;;3.15;;
8857;SDS011;4465;50.904;4.696;2022-11-20T15:07:27;7.78;;;2.95;;
8857;SDS011;4465;50.904;4.696;2022-11-20T15:10:07;4.40;;;3.00;;
8857;SDS011;4465;50.904;4.696;2022-11-20T15:12:53;5.60;;;2.90;;
8857;SDS011;4465;50.904;4.696;2022-11-20T15:21:14;8.77;;;3.90;;
8857;SDS011;4465;50.904;4.696;2022-11-20T15:23:42;8.02;;;3.05;;
8857;SDS011;4465;50.904;4.696;2022-11-20T15:26:11;6.00;;;3.60;;
8857;SDS011;4465;50.904;4.696;2022-11-20T15:28:39;8.48;;;3.80;;
8857;SDS011;4465;50.904;4.696;2022-11-20T15:31:12;7.75;;;3.65;;
8857;SDS011;4465;50.904;4.696;2022-11-20T15:33:42;10.07;;;4.40;;
8857;SDS011;4465;50.904;4.696;2022-11-20T15:36:08;10.82;;;4.68;;
8857;SDS011;4465;50.904;4.696;2022-11-20T15:38:35;11.55;;;5.78;;
8857;SDS011;4465;50.904;4.696;2022-11-20T15:41:05;10.27;;;5.43;;
8857;SDS011;4465;50.904;4.696;2022-11-20T15:43:32;10.10;;;5.72;;
8857;SDS011;4465;50.904;4.696;2022-11-20T15:46:13;12.43;;;6.25;;
8857;SDS011;4465;50.904;4.696;2022-11-20T15:48:47;13.77;;;7.28;;
8857;SDS011;4465;50.904;4.696;2022-11-20T15:54:02;11.25;;;6.30;;
8857;SDS011;4465;50.904;4.696;2022-11-20T15:56:37;14.02;;;5.78;;
8857;SDS011;4465;50.904;4.696;2022-11-20T15:59:03;15.07;;;6.18;;
8857;SDS011;4465;50.904;4.696;2022-11-20T16:01:29;11.65;;;6.18;;
8857;SDS011;4465;50.904;4.696;2022-11-20T16:03:56;19.15;;;6.07;;
8857;SDS011;4465;50.904;4.696;2022-11-20T16:06:22;14.55;;;5.45;;
8857;SDS011;4465;50.904;4.696;2022-11-20T16:08:48;11.45;;;5.60;;
8857;SDS011;4465;50.904;4.696;2022-11-20T16:11:15;12.65;;;4.88;;
8857;SDS011;4465;50.904;4.696;2022-11-20T16:13:44;27.70;;;7.50;;
8857;SDS011;4465;50.904;4.696;2022-11-20T16:16:29;19.55;;;6.60;;
8857;SDS011;4465;50.904;4.696;2022-11-20T16:18:58;12.88;;;5.03;;
8857;SDS011;4465;50.904;4.696;2022-11-20T16:21:25;15.63;;;5.53;;
8857;SDS011;4465;50.904;4.696;2022-11-20T16:24:01;12.13;;;5.00;;
8857;SDS011;4465;50.904;4.696;2022-11-20T16:26:32;15.30;;;4.85;;
8857;SDS011;4465;50.904;4.696;2022-11-20T16:29:02;14.40;;;5.22;;
8857;SDS011;4465;50.904;4.696;2022-11-20T16:31:29;14.50;;;4.95;;
8857;SDS011;4465;50.904;4.696;2022-11-20T16:33:56;15.65;;;4.63;;
8857;SDS011;4465;50.904;4.696;2022-11-20T16:36:24;18.08;;;5.40;;
8857;SDS011;4465;50.904;4.696;2022-11-20T16:38:53;19.85;;;5.15;;
8857;SDS011;4465;50.904;4.696;2022-11-20T16:41:20;23.67;;;5.57;;
8857;SDS011;4465;50.904;4.696;2022-11-20T16:43:49;22.80;;;4.68;;
8857;SDS011;4465;50.904;4.696;2022-11-20T16:46:21;19.40;;;4.47;;
8857;SDS011;4465;50.904;4.696;2022-11-20T16:48:55;14.95;;;4.15;;
8857;SDS011;4465;50.904;4.696;2022-11-20T16:51:25;24.02;;;4.25;;
8857;SDS011;4465;50.904;4.696;2022-11-20T16:53:53;22.02;;;4.78;;
8857;SDS011;4465;50.904;4.696;2022-11-20T16:56:21;21.90;;;5.30;;
8857;SDS011;4465;50.904;4.696;2022-11-20T16:58:48;31.88;;;4.88;;
8857;SDS011;4465;50.904;4.696;2022-11-20T17:01:16;23.77;;;4.55;;
8857;SDS011;4465;50.904;4.696;2022-11-20T17:03:46;20.58;;;4.65;;
8857;SDS011;4465;50.904;4.696;2022-11-20T17:06:32;25.75;;;5.07;;
8857;SDS011;4465;50.904;4.696;2022-11-20T17:09:08;13.05;;;4.30;;
8857;SDS011;4465;50.904;4.696;2022-11-20T17:11:37;13.32;;;4.03;;
8857;SDS011;4465;50.904;4.696;2022-11-20T17:14:03;18.88;;;4.00;;